sensor_id;sensor_type;location;lat;lon;timestamp;pressure;altitude;pressure_sealevel;temperature;humidity
7168;BME280;3625;51.762;14.320;2022-08-18T00:02:02;100107.06;;;21.65;67.81
7168;BME280;3625;51.762;14.320;2022-08-18T00:04:35;100140.84;;;21.81;67.57
7168;BME280;3625;51.762;14.320;2022-08-18T00:07:20;100141.19;;;21.77;68.68
7168;BME280;3625;51.762;14.320;2022-08-18T00:09:50;100136.22;;;21.71;68.93
7168;BME280;3625;51.762;14.320;2022-08-18T00:12:22;100127.66;;;21.66;68.83
7168;BME280;3625;51.762;14.320;2022-08-18T00:14:52;100133.50;;;21.60;70.23
7168;BME280;3625;51.762;14.320;2022-08-18T00:17:22;100128.41;;;21.55;70.47
7168;BME280;3625;51.762;14.320;2022-08-18T00:19:52;100126.09;;;21.51;71.19
7168;BME280;3625;51.762;14.320;2022-08-18T00:22:22;100126.19;;;21.49;72.17
7168;BME280;3625;51.762;14.320;2022-08-18T00:24:53;100124.69;;;21.45;72.03
7168;BME280;3625;51.762;14.320;2022-08-18T00:27:25;100125.13;;;21.39;72.25
7168;BME280;3625;51.762;14.320;2022-08-18T00:29:58;100135.47;;;21.32;72.11
7168;BME280;3625;51.762;14.320;2022-08-18T00:32:30;100127.72;;;21.28;72.53
7168;BME280;3625;51.762;14.320;2022-08-18T00:35:05;100127.84;;;21.26;71.96
7168;BME280;3625;51.762;14.320;2022-08-18T00:37:36;100125.28;;;21.25;73.60
7168;BME280;3625;51.762;14.320;2022-08-18T00:40:08;100128.06;;;21.23;74.33
7168;BME280;3625;51.762;14.320;2022-08-18T00:42:42;100122.88;;;21.20;74.46
7168;BME280;3625;51.762;14.320;2022-08-18T00:45:14;100123.84;;;21.19;73.61
7168;BME280;3625;51.762;14.320;2022-08-18T00:47:44;100121.31;;;21.18;73.53
7168;BME280;3625;51.762;14.320;2022-08-18T00:50:16;100128.59;;;21.16;73.18
7168;BME280;3625;51.762;14.320;2022-08-18T00:52:52;100113.41;;;21.15;73.16
7168;BME280;3625;51.762;14.320;2022-08-18T00:55:24;100119.84;;;21.12;73.41
7168;BME280;3625;51.762;14.320;2022-08-18T00:57:57;100119.00;;;21.12;73.22
7168;BME280;3625;51.762;14.320;2022-08-18T01:00:28;100118.28;;;21.09;73.03
7168;BME280;3625;51.762;14.320;2022-08-18T01:03:01;100112.03;;;21.09;73.34
7168;BME280;3625;51.762;14.320;2022-08-18T01:05:36;100115.56;;;21.09;73.20
7168;BME280;3625;51.762;14.320;2022-08-18T01:08:14;100116.44;;;21.10;73.92
7168;BME280;3625;51.762;14.320;2022-08-18T01:10:57;100113.97;;;21.07;74.68
7168;BME280;3625;51.762;14.320;2022-08-18T01:13:30;100115.78;;;21.06;74.40
7168;BME280;3625;51.762;14.320;2022-08-18T01:16:01;100109.66;;;21.04;74.51
7168;BME280;3625;51.762;14.320;2022-08-18T01:18:51;100110.84;;;21.00;74.60
7168;BME280;3625;51.762;14.320;2022-08-18T01:21:39;100114.72;;;20.96;74.42
7168;BME280;3625;51.762;14.320;2022-08-18T01:24:23;100112.47;;;20.90;74.76
7168;BME280;3625;51.762;14.320;2022-08-18T01:27:16;100119.97;;;20.85;75.16
7168;BME280;3625;51.762;14.320;2022-08-18T01:29:46;100118.47;;;20.81;75.33
7168;BME280;3625;51.762;14.320;2022-08-18T01:32:17;100124.16;;;20.77;75.88
7168;BME280;3625;51.762;14.320;2022-08-18T01:34:48;100115.47;;;20.73;75.95
7168;BME280;3625;51.762;14.320;2022-08-18T01:37:19;100106.53;;;20.73;76.46
7168;BME280;3625;51.762;14.320;2022-08-18T01:39:51;100105.56;;;20.74;76.89
7168;BME280;3625;51.762;14.320;2022-08-18T01:42:40;100107.59;;;20.70;76.67
7168;BME280;3625;51.762;14.320;2022-08-18T01:45:13;100106.75;;;20.69;77.36
7168;BME280;3625;51.762;14.320;2022-08-18T01:47:43;100103.19;;;20.69;77.25
7168;BME280;3625;51.762;14.320;2022-08-18T01:50:23;100108.81;;;20.66;77.54
7168;BME280;3625;51.762;14.320;2022-08-18T01:52:52;100098.16;;;20.64;77.86
7168;BME280;3625;51.762;14.320;2022-08-18T01:55:23;100103.63;;;20.63;77.78
7168;BME280;3625;51.762;14.320;2022-08-18T01:57:55;100109.97;;;20.62;77.99
7168;BME280;3625;51.762;14.320;2022-08-18T02:00:23;100110.94;;;20.61;78.33
7168;BME280;3625;51.762;14.320;2022-08-18T02:02:53;100105.88;;;20.56;78.19
7168;BME280;3625;51.762;14.320;2022-08-18T02:05:32;100111.47;;;20.53;78.63
7168;BME280;3625;51.762;14.320;2022-08-18T02:08:05;100117.03;;;20.50;78.80
7168;BME280;3625;51.762;14.320;2022-08-18T02:10:35;100118.88;;;20.50;79.51
7168;BME280;3625;51.762;14.320;2022-08-18T02:13:05;100115.66;;;20.45;79.40
7168;BME280;3625;51.762;14.320;2022-08-18T02:15:34;100112.19;;;20.43;79.84
7168;BME280;3625;51.762;14.320;2022-08-18T02:18:03;100113.47;;;20.37;80.09
7168;BME280;3625;51.762;14.320;2022-08-18T02:20:32;100104.72;;;20.33;80.48
7168;BME280;3625;51.762;14.320;2022-08-18T02:23:01;100106.78;;;20.30;80.56
7168;BME280;3625;51.762;14.320;2022-08-18T02:25:30;100102.38;;;20.29;81.29
7168;BME280;3625;51.762;14.320;2022-08-18T02:28:01;100110.91;;;20.36;83.40
7168;BME280;3625;51.762;14.320;2022-08-18T02:30:30;100105.09;;;20.42;83.45
7168;BME280;3625;51.762;14.320;2022-08-18T02:32:59;100107.28;;;20.49;85.67
7168;BME280;3625;51.762;14.320;2022-08-18T02:35:28;100106.41;;;20.61;86.02
7168;BME280;3625;51.762;14.320;2022-08-18T02:37:58;100105.47;;;20.62;84.42
7168;BME280;3625;51.762;14.320;2022-08-18T02:40:30;100108.69;;;20.55;83.24
7168;BME280;3625;51.762;14.320;2022-08-18T02:43:06;100108.25;;;20.48;82.85
7168;BME280;3625;51.762;14.320;2022-08-18T02:45:36;100110.47;;;20.42;82.62
7168;BME280;3625;51.762;14.320;2022-08-18T02:48:06;100103.78;;;20.34;82.57
7168;BME280;3625;51.762;14.320;2022-08-18T02:50:35;100108.50;;;20.31;82.72
7168;BME280;3625;51.762;14.320;2022-08-18T02:53:12;100102.03;;;20.33;82.68
7168;BME280;3625;51.762;14.320;2022-08-18T02:55:47;100098.41;;;20.34;82.88
7168;BME280;3625;51.762;14.320;2022-08-18T02:58:17;100105.53;;;20.36;82.53
7168;BME280;3625;51.762;14.320;2022-08-18T03:00:47;100099.19;;;20.37;82.75
7168;BME280;3625;51.762;14.320;2022-08-18T03:03:16;100097.16;;;20.40;82.32
7168;BME280;3625;51.762;14.320;2022-08-18T03:05:45;100099.72;;;20.42;82.13
7168;BME280;3625;51.762;14.320;2022-08-18T03:08:14;100106.28;;;20.38;81.98
7168;BME280;3625;51.762;14.320;2022-08-18T03:10:43;100112.78;;;20.33;82.09
7168;BME280;3625;51.762;14.320;2022-08-18T03:13:12;100107.94;;;20.26;82.39
7168;BME280;3625;51.762;14.320;2022-08-18T03:15:43;100108.38;;;20.20;82.57
7168;BME280;3625;51.762;14.320;2022-08-18T03:18:13;100102.56;;;20.13;82.79
7168;BME280;3625;51.762;14.320;2022-08-18T03:20:43;100103.81;;;20.08;82.86
7168;BME280;3625;51.762;14.320;2022-08-18T03:23:13;100105.00;;;20.04;83.00
7168;BME280;3625;51.762;14.320;2022-08-18T03:25:44;100103.25;;;20.03;83.66
7168;BME280;3625;51.762;14.320;2022-08-18T03:28:14;100107.00;;;20.00;83.70
7168;BME280;3625;51.762;14.320;2022-08-18T03:30:44;100105.50;;;19.96;83.81
7168;BME280;3625;51.762;14.320;2022-08-18T03:33:14;100106.66;;;19.92;83.66
7168;BME280;3625;51.762;14.320;2022-08-18T03:35:43;100100.66;;;19.88;84.07
7168;BME280;3625;51.762;14.320;2022-08-18T03:38:12;100100.66;;;19.88;84.02
7168;BME280;3625;51.762;14.320;2022-08-18T03:40:41;100096.31;;;19.86;84.35
7168;BME280;3625;51.762;14.320;2022-08-18T03:43:10;100089.44;;;19.82;84.52
7168;BME280;3625;51.762;14.320;2022-08-18T03:46:02;100087.81;;;19.79;84.68
7168;BME280;3625;51.762;14.320;2022-08-18T03:48:31;100093.19;;;19.79;84.78
7168;BME280;3625;51.762;14.320;2022-08-18T03:51:03;100101.25;;;19.79;84.76
7168;BME280;3625;51.762;14.320;2022-08-18T03:53:33;100013.44;;;19.40;84.69
7168;BME280;3625;51.762;14.320;2022-08-18T03:56:06;100099.88;;;19.86;84.57
7168;BME280;3625;51.762;14.320;2022-08-18T03:58:45;100099.00;;;19.86;85.02
7168;BME280;3625;51.762;14.320;2022-08-18T04:01:19;100099.00;;;19.86;84.82
7168;BME280;3625;51.762;14.320;2022-08-18T04:03:55;100096.31;;;19.86;85.04
7168;BME280;3625;51.762;14.320;2022-08-18T04:06:28;100104.38;;;19.86;85.23
7168;BME280;3625;51.762;14.320;2022-08-18T04:08:59;100097.19;;;19.86;85.25
7168;BME280;3625;51.762;14.320;2022-08-18T04:11:29;100102.34;;;19.89;85.38
7168;BME280;3625;51.762;14.320;2022-08-18T04:14:03;100103.00;;;19.93;85.40
7168;BME280;3625;51.762;14.320;2022-08-18T04:16:34;100101.84;;;19.97;85.18
7168;BME280;3625;51.762;14.320;2022-08-18T04:19:03;100104.13;;;20.03;85.14
7168;BME280;3625;51.762;14.320;2022-08-18T04:21:34;100095.53;;;20.11;85.16
7168;BME280;3625;51.762;14.320;2022-08-18T04:24:05;100097.72;;;20.18;84.86
7168;BME280;3625;51.762;14.320;2022-08-18T04:26:38;100113.22;;;20.27;84.80
7168;BME280;3625;51.762;14.320;2022-08-18T04:29:08;100107.25;;;20.37;84.46
7168;BME280;3625;51.762;14.320;2022-08-18T04:31:39;100108.25;;;20.48;84.46
7168;BME280;3625;51.762;14.320;2022-08-18T04:34:08;100114.59;;;20.60;84.20
7168;BME280;3625;51.762;14.320;2022-08-18T04:36:39;100106.66;;;20.71;84.04
7168;BME280;3625;51.762;14.320;2022-08-18T04:39:10;100118.28;;;20.84;83.68
7168;BME280;3625;51.762;14.320;2022-08-18T04:41:42;100111.06;;;20.97;83.61
7168;BME280;3625;51.762;14.320;2022-08-18T04:44:11;100122.66;;;21.10;83.16
7168;BME280;3625;51.762;14.320;2022-08-18T04:46:44;100120.84;;;21.24;82.90
7168;BME280;3625;51.762;14.320;2022-08-18T04:49:15;100084.88;;;21.12;83.07
7168;BME280;3625;51.762;14.320;2022-08-18T04:51:48;100126.28;;;21.48;82.57
7168;BME280;3625;51.762;14.320;2022-08-18T04:54:58;100122.81;;;21.58;82.38
7168;BME280;3625;51.762;14.320;2022-08-18T04:57:28;100119.69;;;21.64;82.26
7168;BME280;3625;51.762;14.320;2022-08-18T05:00:00;100129.00;;;21.71;82.03
7168;BME280;3625;51.762;14.320;2022-08-18T05:02:31;100134.84;;;21.78;81.81
7168;BME280;3625;51.762;14.320;2022-08-18T05:05:00;100134.38;;;21.84;82.09
7168;BME280;3625;51.762;14.320;2022-08-18T05:07:31;100139.19;;;21.92;81.72
7168;BME280;3625;51.762;14.320;2022-08-18T05:10:00;100135.09;;;21.99;81.56
7168;BME280;3625;51.762;14.320;2022-08-18T05:12:29;100138.22;;;22.05;81.57
7168;BME280;3625;51.762;14.320;2022-08-18T05:14:58;100137.63;;;22.13;81.37
7168;BME280;3625;51.762;14.320;2022-08-18T05:17:27;100144.16;;;22.22;80.97
7168;BME280;3625;51.762;14.320;2022-08-18T05:19:59;100150.69;;;22.30;80.43
7168;BME280;3625;51.762;14.320;2022-08-18T05:22:36;100149.13;;;22.39;79.80
7168;BME280;3625;51.762;14.320;2022-08-18T05:25:06;100152.97;;;22.47;79.40
7168;BME280;3625;51.762;14.320;2022-08-18T05:27:37;100145.16;;;22.55;78.91
7168;BME280;3625;51.762;14.320;2022-08-18T05:30:08;100148.56;;;22.57;78.63
7168;BME280;3625;51.762;14.320;2022-08-18T05:32:40;100148.47;;;22.59;78.14
7168;BME280;3625;51.762;14.320;2022-08-18T05:35:21;100148.34;;;22.61;78.08
7168;BME280;3625;51.762;14.320;2022-08-18T05:38:03;100148.13;;;22.64;77.94
7168;BME280;3625;51.762;14.320;2022-08-18T05:40:34;100145.91;;;22.69;77.61
7168;BME280;3625;51.762;14.320;2022-08-18T05:43:04;100138.34;;;22.74;77.33
7168;BME280;3625;51.762;14.320;2022-08-18T05:45:34;100142.31;;;22.81;77.10
7168;BME280;3625;51.762;14.320;2022-08-18T05:48:04;100144.41;;;22.88;76.66
7168;BME280;3625;51.762;14.320;2022-08-18T05:50:36;100146.38;;;22.98;76.27
7168;BME280;3625;51.762;14.320;2022-08-18T05:53:08;100150.31;;;23.05;76.03
7168;BME280;3625;51.762;14.320;2022-08-18T05:55:45;100142.47;;;23.13;75.54
7168;BME280;3625;51.762;14.320;2022-08-18T05:58:37;100154.38;;;23.21;75.18
7168;BME280;3625;51.762;14.320;2022-08-18T06:01:12;100154.75;;;23.28;74.97
7168;BME280;3625;51.762;14.320;2022-08-18T06:03:47;100151.69;;;23.32;74.75
7168;BME280;3625;51.762;14.320;2022-08-18T06:06:21;100155.84;;;23.37;74.34
7168;BME280;3625;51.762;14.320;2022-08-18T06:08:57;100150.94;;;23.42;73.80
7168;BME280;3625;51.762;14.320;2022-08-18T06:11:29;100145.06;;;23.48;73.55
7168;BME280;3625;51.762;14.320;2022-08-18T06:13:58;100136.63;;;23.52;73.47
7168;BME280;3625;51.762;14.320;2022-08-18T06:16:40;100140.41;;;23.61;73.07
7168;BME280;3625;51.762;14.320;2022-08-18T06:19:23;100141.63;;;23.68;72.86
7168;BME280;3625;51.762;14.320;2022-08-18T06:22:00;100136.56;;;23.75;72.42
7168;BME280;3625;51.762;14.320;2022-08-18T06:24:35;100143.44;;;23.79;72.35
7168;BME280;3625;51.762;14.320;2022-08-18T06:27:11;100144.66;;;23.86;72.10
7168;BME280;3625;51.762;14.320;2022-08-18T06:29:52;100150.41;;;23.92;71.79
7168;BME280;3625;51.762;14.320;2022-08-18T06:32:46;100146.34;;;23.98;71.61
7168;BME280;3625;51.762;14.320;2022-08-18T06:35:29;100161.91;;;24.05;71.26
7168;BME280;3625;51.762;14.320;2022-08-18T06:38:20;100149.75;;;24.11;71.15
7168;BME280;3625;51.762;14.320;2022-08-18T06:41:13;100161.66;;;24.20;70.81
7168;BME280;3625;51.762;14.320;2022-08-18T06:44:05;100162.75;;;24.28;70.30
7168;BME280;3625;51.762;14.320;2022-08-18T06:46:44;100146.78;;;24.25;70.00
7168;BME280;3625;51.762;14.320;2022-08-18T06:52:22;100166.31;;;24.61;68.90
7168;BME280;3625;51.762;14.320;2022-08-18T06:54:55;100161.81;;;24.71;68.63
7168;BME280;3625;51.762;14.320;2022-08-18T06:57:28;100163.13;;;24.76;68.36
7168;BME280;3625;51.762;14.320;2022-08-18T07:00:06;100169.47;;;24.87;68.19
7168;BME280;3625;51.762;14.320;2022-08-18T07:02:45;100164.53;;;24.92;68.01
7168;BME280;3625;51.762;14.320;2022-08-18T07:05:19;100166.63;;;24.99;67.74
7168;BME280;3625;51.762;14.320;2022-08-18T07:08:09;100167.50;;;25.09;67.62
7168;BME280;3625;51.762;14.320;2022-08-18T07:10:43;100164.72;;;25.21;66.97
7168;BME280;3625;51.762;14.320;2022-08-18T07:13:21;100162.81;;;25.32;66.72
7168;BME280;3625;51.762;14.320;2022-08-18T07:15:53;100165.38;;;25.43;66.39
7168;BME280;3625;51.762;14.320;2022-08-18T07:18:25;100168.88;;;25.55;65.84
7168;BME280;3625;51.762;14.320;2022-08-18T07:20:59;100175.22;;;25.65;65.65
7168;BME280;3625;51.762;14.320;2022-08-18T07:23:32;100173.28;;;25.77;65.61
7168;BME280;3625;51.762;14.320;2022-08-18T07:26:15;100178.91;;;25.95;64.26
7168;BME280;3625;51.762;14.320;2022-08-18T07:28:48;100177.91;;;26.05;62.57
7168;BME280;3625;51.762;14.320;2022-08-18T07:31:35;100179.22;;;26.20;61.77
7168;BME280;3625;51.762;14.320;2022-08-18T07:34:09;100184.97;;;26.27;62.16
7168;BME280;3625;51.762;14.320;2022-08-18T07:36:48;100115.34;;;25.87;62.22
7168;BME280;3625;51.762;14.320;2022-08-18T07:39:22;100185.38;;;26.32;62.48
7168;BME280;3625;51.762;14.320;2022-08-18T07:42:00;100181.09;;;26.39;61.42
7168;BME280;3625;51.762;14.320;2022-08-18T07:44:39;100171.25;;;26.48;61.42
7168;BME280;3625;51.762;14.320;2022-08-18T07:47:15;100177.00;;;26.54;60.99
7168;BME280;3625;51.762;14.320;2022-08-18T07:49:47;100179.25;;;26.59;61.06
7168;BME280;3625;51.762;14.320;2022-08-18T07:52:42;100159.84;;;26.54;60.58
7168;BME280;3625;51.762;14.320;2022-08-18T07:55:27;100184.25;;;26.73;59.96
7168;BME280;3625;51.762;14.320;2022-08-18T07:58:18;100163.97;;;26.77;59.73
7168;BME280;3625;51.762;14.320;2022-08-18T08:00:55;100175.25;;;27.01;58.87
7168;BME280;3625;51.762;14.320;2022-08-18T08:18:48;100190.81;;;27.65;53.78
7168;BME280;3625;51.762;14.320;2022-08-18T08:21:22;100192.31;;;27.77;53.72
7168;BME280;3625;51.762;14.320;2022-08-18T08:24:00;100181.44;;;27.77;53.60
7168;BME280;3625;51.762;14.320;2022-08-18T08:26:40;100188.84;;;27.85;51.81
7168;BME280;3625;51.762;14.320;2022-08-18T08:29:23;100190.44;;;28.05;50.24
7168;BME280;3625;51.762;14.320;2022-08-18T08:32:01;100186.53;;;28.18;50.06
7168;BME280;3625;51.762;14.320;2022-08-18T08:34:38;100190.88;;;28.28;50.16
7168;BME280;3625;51.762;14.320;2022-08-18T08:37:13;100187.34;;;28.28;50.41
7168;BME280;3625;51.762;14.320;2022-08-18T08:39:49;100186.22;;;28.38;49.90
7168;BME280;3625;51.762;14.320;2022-08-18T08:42:27;100184.00;;;28.34;49.83
7168;BME280;3625;51.762;14.320;2022-08-18T08:45:09;100187.56;;;28.34;50.29
7168;BME280;3625;51.762;14.320;2022-08-18T08:47:42;100174.34;;;28.57;49.96
7168;BME280;3625;51.762;14.320;2022-08-18T08:50:17;100179.16;;;28.81;49.45
7168;BME280;3625;51.762;14.320;2022-08-18T08:52:51;100181.25;;;29.05;47.61
7168;BME280;3625;51.762;14.320;2022-08-18T08:55:26;100176.09;;;29.27;46.92
7168;BME280;3625;51.762;14.320;2022-08-18T08:58:08;100169.09;;;29.51;45.96
7168;BME280;3625;51.762;14.320;2022-08-18T09:00:42;100173.63;;;29.68;45.76
7168;BME280;3625;51.762;14.320;2022-08-18T09:03:28;100171.78;;;29.77;45.44
7168;BME280;3625;51.762;14.320;2022-08-18T09:06:18;100154.56;;;29.76;45.30
7168;BME280;3625;51.762;14.320;2022-08-18T09:09:07;100157.66;;;29.81;44.89
7168;BME280;3625;51.762;14.320;2022-08-18T09:15:01;100146.09;;;29.87;42.49
7168;BME280;3625;51.762;14.320;2022-08-18T09:17:55;100150.59;;;30.05;42.30
7168;BME280;3625;51.762;14.320;2022-08-18T09:20:46;100149.75;;;30.12;42.68
7168;BME280;3625;51.762;14.320;2022-08-18T09:23:21;100135.94;;;30.06;43.36
7168;BME280;3625;51.762;14.320;2022-08-18T09:25:53;100132.50;;;29.95;43.38
7168;BME280;3625;51.762;14.320;2022-08-18T09:28:51;100121.91;;;29.92;43.63
7168;BME280;3625;51.762;14.320;2022-08-18T09:31:24;100117.63;;;29.90;42.20
7168;BME280;3625;51.762;14.320;2022-08-18T09:34:24;100096.66;;;29.90;42.25
7168;BME280;3625;51.762;14.320;2022-08-18T09:37:03;100115.81;;;30.15;41.73
7168;BME280;3625;51.762;14.320;2022-08-18T09:39:43;100106.09;;;30.20;41.11
7168;BME280;3625;51.762;14.320;2022-08-18T09:42:42;100106.47;;;30.33;39.19
7168;BME280;3625;51.762;14.320;2022-08-18T09:45:56;100100.19;;;30.57;38.96
7168;BME280;3625;51.762;14.320;2022-08-18T09:48:30;100099.69;;;30.70;39.36
7168;BME280;3625;51.762;14.320;2022-08-18T09:51:18;100094.22;;;30.70;39.65
7168;BME280;3625;51.762;14.320;2022-08-18T09:54:13;100091.47;;;30.78;38.29
7168;BME280;3625;51.762;14.320;2022-08-18T09:57:17;100087.34;;;30.82;39.07
7168;BME280;3625;51.762;14.320;2022-08-18T09:59:57;100075.91;;;30.87;38.43
7168;BME280;3625;51.762;14.320;2022-08-18T10:03:21;100072.47;;;30.93;36.91
7168;BME280;3625;51.762;14.320;2022-08-18T10:06:17;100057.25;;;30.98;36.09
7168;BME280;3625;51.762;14.320;2022-08-18T10:09:15;100061.34;;;31.19;36.64
7168;BME280;3625;51.762;14.320;2022-08-18T10:12:24;100073.25;;;31.26;36.89
7168;BME280;3625;51.762;14.320;2022-08-18T10:15:32;100077.19;;;31.23;36.68
7168;BME280;3625;51.762;14.320;2022-08-18T10:18:41;100075.81;;;31.27;35.60
7168;BME280;3625;51.762;14.320;2022-08-18T10:21:18;100078.66;;;31.42;35.68
7168;BME280;3625;51.762;14.320;2022-08-18T10:23:55;100075.38;;;31.63;35.67
7168;BME280;3625;51.762;14.320;2022-08-18T10:27:32;100081.66;;;31.94;35.10
7168;BME280;3625;51.762;14.320;2022-08-18T10:30:05;100081.19;;;32.13;34.99
7168;BME280;3625;51.762;14.320;2022-08-18T10:33:02;100059.97;;;32.15;34.49
7168;BME280;3625;51.762;14.320;2022-08-18T10:36:02;100045.56;;;32.21;33.58
7168;BME280;3625;51.762;14.320;2022-08-18T10:38:43;100064.00;;;32.50;33.46
7168;BME280;3625;51.762;14.320;2022-08-18T10:41:26;100039.41;;;32.42;33.49
7168;BME280;3625;51.762;14.320;2022-08-18T10:44:00;100060.94;;;32.45;33.32
7168;BME280;3625;51.762;14.320;2022-08-18T10:46:51;100055.34;;;32.39;33.75
7168;BME280;3625;51.762;14.320;2022-08-18T10:49:24;100062.78;;;32.30;33.94
7168;BME280;3625;51.762;14.320;2022-08-18T10:52:17;100061.31;;;32.42;33.92
7168;BME280;3625;51.762;14.320;2022-08-18T10:55:19;100036.78;;;32.64;33.38
7168;BME280;3625;51.762;14.320;2022-08-18T10:58:39;100059.19;;;33.19;32.47
7168;BME280;3625;51.762;14.320;2022-08-18T11:01:39;100051.78;;;33.49;32.41
7168;BME280;3625;51.762;14.320;2022-08-18T11:04:28;100053.34;;;34.09;31.79
7168;BME280;3625;51.762;14.320;2022-08-18T11:07:09;100004.59;;;34.32;29.42
7168;BME280;3625;51.762;14.320;2022-08-18T11:09:40;100032.91;;;34.82;29.68
7168;BME280;3625;51.762;14.320;2022-08-18T11:13:02;100052.16;;;35.64;28.86
7168;BME280;3625;51.762;14.320;2022-08-18T11:15:54;100040.91;;;36.13;28.99
7168;BME280;3625;51.762;14.320;2022-08-18T11:18:34;100052.81;;;36.60;28.31
7168;BME280;3625;51.762;14.320;2022-08-18T11:21:33;100030.34;;;36.76;27.15
7168;BME280;3625;51.762;14.320;2022-08-18T11:24:26;100050.47;;;36.96;27.12
7168;BME280;3625;51.762;14.320;2022-08-18T11:27:04;100049.22;;;36.92;27.78
7168;BME280;3625;51.762;14.320;2022-08-18T11:29:42;100036.28;;;36.66;27.68
7168;BME280;3625;51.762;14.320;2022-08-18T11:32:23;99929.81;;;35.73;28.12
7168;BME280;3625;51.762;14.320;2022-08-18T11:35:06;99993.59;;;35.77;28.53
7168;BME280;3625;51.762;14.320;2022-08-18T11:37:46;100031.50;;;35.75;28.71
7168;BME280;3625;51.762;14.320;2022-08-18T11:40:32;100033.59;;;35.73;29.12
7168;BME280;3625;51.762;14.320;2022-08-18T11:43:26;100003.44;;;35.45;28.87
7168;BME280;3625;51.762;14.320;2022-08-18T11:46:22;100021.03;;;35.57;28.58
7168;BME280;3625;51.762;14.320;2022-08-18T11:48:59;100028.13;;;35.79;28.57
7168;BME280;3625;51.762;14.320;2022-08-18T11:51:32;100021.19;;;36.10;27.66
7168;BME280;3625;51.762;14.320;2022-08-18T11:54:21;100009.06;;;35.78;25.88
7168;BME280;3625;51.762;14.320;2022-08-18T11:56:51;100029.06;;;35.11;26.93
7168;BME280;3625;51.762;14.320;2022-08-18T11:59:31;100021.91;;;34.82;28.14
7168;BME280;3625;51.762;14.320;2022-08-18T12:02:24;100033.41;;;34.99;28.77
7168;BME280;3625;51.762;14.320;2022-08-18T12:04:59;100040.25;;;35.09;28.60
7168;BME280;3625;51.762;14.320;2022-08-18T12:07:41;100022.72;;;35.17;28.69
7168;BME280;3625;51.762;14.320;2022-08-18T12:10:27;100030.50;;;35.48;28.20
7168;BME280;3625;51.762;14.320;2022-08-18T12:12:57;100033.16;;;35.69;28.19
7168;BME280;3625;51.762;14.320;2022-08-18T12:15:32;100035.34;;;35.87;28.19
7168;BME280;3625;51.762;14.320;2022-08-18T12:18:14;100029.44;;;36.03;27.96
7168;BME280;3625;51.762;14.320;2022-08-18T12:21:04;100002.53;;;36.12;28.00
7168;BME280;3625;51.762;14.320;2022-08-18T12:23:34;100040.97;;;36.40;27.61
7168;BME280;3625;51.762;14.320;2022-08-18T12:26:17;100027.78;;;36.28;27.83
7168;BME280;3625;51.762;14.320;2022-08-18T12:29:06;100027.34;;;36.18;27.79
7168;BME280;3625;51.762;14.320;2022-08-18T12:31:37;100026.03;;;36.01;28.33
7168;BME280;3625;51.762;14.320;2022-08-18T12:34:14;100027.06;;;35.80;28.14
7168;BME280;3625;51.762;14.320;2022-08-18T12:36:55;100019.13;;;35.58;28.35
7168;BME280;3625;51.762;14.320;2022-08-18T12:39:25;100011.00;;;35.36;28.64
7168;BME280;3625;51.762;14.320;2022-08-18T12:41:57;100016.59;;;35.15;28.88
7168;BME280;3625;51.762;14.320;2022-08-18T12:44:26;100009.91;;;34.96;29.21
7168;BME280;3625;51.762;14.320;2022-08-18T12:46:55;99978.94;;;34.53;29.00
7168;BME280;3625;51.762;14.320;2022-08-18T12:49:26;100013.19;;;34.51;28.99
7168;BME280;3625;51.762;14.320;2022-08-18T12:51:56;100009.75;;;34.42;29.26
7168;BME280;3625;51.762;14.320;2022-08-18T12:54:29;99997.34;;;34.25;28.88
7168;BME280;3625;51.762;14.320;2022-08-18T12:57:06;100013.13;;;34.44;29.11
7168;BME280;3625;51.762;14.320;2022-08-18T12:59:36;100013.44;;;34.56;29.18
7168;BME280;3625;51.762;14.320;2022-08-18T13:02:08;100018.28;;;34.54;28.93
7168;BME280;3625;51.762;14.320;2022-08-18T13:04:38;100013.69;;;34.33;29.33
7168;BME280;3625;51.762;14.320;2022-08-18T13:07:07;100019.22;;;33.97;30.05
7168;BME280;3625;51.762;14.320;2022-08-18T13:09:39;100014.59;;;33.61;30.56
7168;BME280;3625;51.762;14.320;2022-08-18T13:12:21;99980.22;;;33.15;31.50
7168;BME280;3625;51.762;14.320;2022-08-18T13:14:53;99994.72;;;32.94;31.82
7168;BME280;3625;51.762;14.320;2022-08-18T13:17:24;99999.63;;;32.84;32.41
7168;BME280;3625;51.762;14.320;2022-08-18T13:20:02;100001.31;;;32.70;32.58
7168;BME280;3625;51.762;14.320;2022-08-18T13:22:34;100006.84;;;32.62;32.82
7168;BME280;3625;51.762;14.320;2022-08-18T13:25:05;100008.72;;;32.61;32.35
7168;BME280;3625;51.762;14.320;2022-08-18T13:27:37;99978.66;;;32.24;33.52
7168;BME280;3625;51.762;14.320;2022-08-18T13:30:15;100002.84;;;32.12;34.35
7168;BME280;3625;51.762;14.320;2022-08-18T13:32:59;99993.69;;;31.82;34.03
7168;BME280;3625;51.762;14.320;2022-08-18T13:35:32;100008.25;;;31.75;34.52
7168;BME280;3625;51.762;14.320;2022-08-18T13:38:16;100007.44;;;31.66;34.73
7168;BME280;3625;51.762;14.320;2022-08-18T13:40:57;100014.00;;;31.49;34.72
7168;BME280;3625;51.762;14.320;2022-08-18T13:43:31;100007.09;;;31.38;35.24
7168;BME280;3625;51.762;14.320;2022-08-18T13:46:01;100018.19;;;31.37;35.31
7168;BME280;3625;51.762;14.320;2022-08-18T13:48:30;100020.84;;;31.22;36.54
7168;BME280;3625;51.762;14.320;2022-08-18T13:51:02;100018.31;;;31.13;36.69
7168;BME280;3625;51.762;14.320;2022-08-18T13:53:36;100027.34;;;31.05;36.85
7168;BME280;3625;51.762;14.320;2022-08-18T13:56:24;100040.69;;;31.00;37.71
7168;BME280;3625;51.762;14.320;2022-08-18T13:58:59;100047.88;;;30.93;38.34
7168;BME280;3625;51.762;14.320;2022-08-18T14:01:34;100054.75;;;30.72;41.33
7168;BME280;3625;51.762;14.320;2022-08-18T14:04:19;100062.25;;;30.46;45.06
7168;BME280;3625;51.762;14.320;2022-08-18T14:06:50;100029.94;;;29.69;50.31
7168;BME280;3625;51.762;14.320;2022-08-18T14:09:25;100059.34;;;29.15;53.87
7168;BME280;3625;51.762;14.320;2022-08-18T14:12:08;100055.69;;;28.98;55.04
7168;BME280;3625;51.762;14.320;2022-08-18T14:14:52;100060.41;;;29.14;52.27
7168;BME280;3625;51.762;14.320;2022-08-18T14:17:24;100064.31;;;29.45;52.87